Time;durP1;ratioP1;P1;durP2;ratioP2;P2;SDS_P1;SDS_P2;PMS_P1;PMS_P2;Temp;Humidity;BMP_temperature;BMP_pressure;BME280_temperature;BME280_humidity;BME280_pressure;Samples;Min_cycle;Max_cycle;Signal;HPM_P1;HPM_P2
2024/01/13 00:01:56;;;;;;;;;44.67;36.00;;;;;-143.90;100.00;77221.53;4801188;28;103095;-72
2024/01/13 00:04:22;;;;;;;;;37.33;33.33;;;;;-143.90;100.00;77225.66;4822383;28;102554;-72
2024/01/13 00:06:49;;;;;;;;;59.67;43.33;;;;;-143.90;100.00;77236.00;4828964;28;102317;-72
2024/01/13 00:09:16;;;;;;;;;47.00;34.33;;;;;-143.90;100.00;77227.75;4827068;28;103979;-72
2024/01/13 00:11:43;;;;;;;;;49.33;37.33;;;;;-143.90;100.00;77213.25;4811510;28;102647;-72
2024/01/13 00:14:09;;;;;;;;;46.67;39.33;;;;;-143.90;100.00;77207.06;4816272;28;102483;-72
2024/01/13 00:16:36;;;;;;;;;38.00;33.33;;;;;-143.90;100.00;77207.06;4832941;28;102557;-71
2024/01/13 00:19:03;;;;;;;;;39.67;34.33;;;;;-143.90;100.00;77202.91;4829700;28;104143;-71
2024/01/13 00:21:31;;;;;;;;;50.00;38.33;;;;;-143.90;100.00;77198.78;4823571;28;102309;-71
2024/01/13 00:23:58;;;;;;;;;43.00;38.00;;;;;-143.90;100.00;77205.00;4819389;28;102256;-72
2024/01/13 00:26:25;;;;;;;;;53.33;41.67;;;;;-143.90;100.00;77215.34;4823304;28;103125;-71
2024/01/13 00:28:51;;;;;;;;;43.67;38.00;;;;;-143.90;100.00;77207.06;4821993;28;104185;-72
2024/01/13 00:31:18;;;;;;;;;34.33;31.33;;;;;-143.90;100.00;77202.91;4830631;28;103874;-71
2024/01/13 00:33:45;;;;;;;;;50.33;40.33;;;;;-143.90;100.00;77211.19;4823939;28;102065;-72
2024/01/13 00:36:12;;;;;;;;;42.33;36.00;;;;;-143.90;100.00;77211.19;4818069;28;102366;-72
2024/01/13 00:38:38;;;;;;;;;47.00;38.33;;;;;-143.90;100.00;77209.13;4816570;28;103976;-72
2024/01/13 00:41:05;;;;;;;;;47.67;40.33;;;;;-143.90;100.00;77205.00;4785654;29;103963;-72
2024/01/13 00:43:34;;;;;;;;;41.00;32.67;;;;;-143.90;100.00;77198.78;4811216;29;102262;-71
2024/01/13 00:46:01;;;;;;;;;43.67;35.33;;;;;-143.90;100.00;77213.25;4798940;29;104670;-72
2024/01/13 00:48:28;;;;;;;;;46.67;35.67;;;;;-143.90;100.00;77198.78;4807548;29;104027;-71
2024/01/13 00:51:07;;;;;;;;;53.33;40.33;;;;;-143.90;100.00;77209.13;4815181;29;102277;-71
2024/01/13 00:53:35;;;;;;;;;38.67;30.33;;;;;-143.90;100.00;77209.13;4808362;29;102408;-71
2024/01/13 00:56:02;;;;;;;;;43.33;36.67;;;;;-143.90;100.00;77213.25;4793469;29;102623;-71
2024/01/13 00:58:29;;;;;;;;;51.33;37.33;;;;;-143.90;100.00;77211.19;4805410;29;104133;-71
2024/01/13 01:01:09;;;;;;;;;44.67;35.33;;;;;-143.90;100.00;77219.47;4803649;29;102432;-71
2024/01/13 01:03:36;;;;;;;;;49.00;39.33;;;;;-143.90;100.00;77219.47;4811890;29;102802;-71
2024/01/13 01:06:04;;;;;;;;;56.33;39.67;;;;;-143.90;100.00;77213.25;4793073;29;103895;-71
2024/01/13 01:08:31;;;;;;;;;49.33;38.67;;;;;-143.90;100.00;77215.34;4806302;29;104079;-71
2024/01/13 01:11:06;;;;;;;;;47.00;39.00;;;;;-143.90;100.00;77223.59;4802983;29;102666;-71
2024/01/13 01:13:33;;;;;;;;;52.00;35.00;;;;;-143.90;100.00;77215.34;4801424;29;102351;-71
2024/01/13 01:16:00;;;;;;;;;45.33;35.33;;;;;-143.90;100.00;77211.19;4803865;29;102416;-71
2024/01/13 01:18:27;;;;;;;;;53.67;41.00;;;;;-143.90;100.00;77221.53;4802475;29;103649;-71
2024/01/13 01:21:10;;;;;;;;;39.67;31.00;;;;;-143.90;100.00;77223.59;4801701;29;102359;-71
2024/01/13 01:23:37;;;;;;;;;48.33;37.00;;;;;-143.90;100.00;77215.34;4805569;29;103743;-70
2024/01/13 01:26:04;;;;;;;;;34.33;32.00;;;;;-143.90;100.00;77219.47;4804876;29;102054;-71
2024/01/13 01:28:30;;;;;;;;;43.67;33.33;;;;;-143.90;100.00;77215.34;4805237;29;104062;-70
2024/01/13 01:31:06;;;;;;;;;41.67;32.33;;;;;-143.90;100.00;77215.34;4807027;29;102817;-70
2024/01/13 01:33:35;;;;;;;;;32.67;25.33;;;;;-143.90;100.00;77202.91;4805369;29;102494;-70
2024/01/13 01:36:04;;;;;;;;;35.67;28.00;;;;;-143.90;100.00;77196.72;4806302;29;103683;-70
2024/01/13 01:38:30;;;;;;;;;43.33;26.00;;;;;-143.90;100.00;77190.50;4808794;29;104011;-70
2024/01/13 01:41:09;;;;;;;;;28.67;24.33;;;;;-143.90;100.00;77190.50;4809598;29;102739;-71
2024/01/13 01:43:37;;;;;;;;;31.33;26.00;;;;;-143.90;100.00;77186.38;4812199;29;104269;-71
2024/01/13 01:46:04;;;;;;;;;30.67;27.33;;;;;-143.90;100.00;77178.09;4797979;29;102340;-71
2024/01/13 01:48:37;;;;;;;;;38.33;30.67;;;;;-143.90;100.00;77184.31;4808056;29;106358;-71
2024/01/13 01:51:10;;;;;;;;;35.67;28.67;;;;;-143.90;100.00;77178.09;4797214;29;102882;-71
2024/01/13 01:53:39;;;;;;;;;31.33;26.00;;;;;-143.90;100.00;77178.09;4803127;29;102662;-71
2024/01/13 01:56:12;;;;;;;;;34.67;28.33;;;;;-143.90;100.00;77167.75;4793550;29;102076;-71
2024/01/13 01:58:39;;;;;;;;;35.00;28.33;;;;;-143.90;100.00;77163.63;4807988;29;108997;-71
2024/01/13 02:01:08;;;;;;;;;31.33;29.33;;;;;-143.90;100.00;77157.41;4811813;29;103722;-71
2024/01/13 02:03:38;;;;;;;;;35.33;25.67;;;;;-143.90;100.00;77161.56;4807017;29;102321;-71
2024/01/13 02:06:06;;;;;;;;;28.33;26.00;;;;;-143.90;100.00;77157.41;4788903;29;104301;-71
2024/01/13 02:08:33;;;;;;;;;25.67;23.00;;;;;-143.90;100.00;77153.28;4806543;29;108870;-70
2024/01/13 02:11:10;;;;;;;;;30.00;20.67;;;;;-143.90;100.00;77149.13;4805650;29;102738;-70
2024/01/13 02:13:41;;;;;;;;;28.67;22.33;;;;;-143.90;100.00;77142.94;4799355;29;102338;-71
2024/01/13 02:16:08;;;;;;;;;24.67;22.00;;;;;-143.90;100.00;77140.88;4801036;29;102496;-70
2024/01/13 02:18:35;;;;;;;;;28.33;23.67;;;;;-143.90;100.00;77142.94;4806350;29;108755;-70
2024/01/13 02:21:08;;;;;;;;;32.00;27.67;;;;;-143.90;100.00;77153.28;4805225;29;102405;-71
2024/01/13 02:23:35;;;;;;;;;36.67;30.00;;;;;-143.90;100.00;77147.06;4802425;29;103640;-70
2024/01/13 02:26:02;;;;;;;;;39.33;24.00;;;;;-143.90;100.00;77147.06;4801315;29;102787;-71
2024/01/13 02:28:29;;;;;;;;;35.67;29.00;;;;;-143.90;100.00;77140.88;4802127;29;104141;-70
2024/01/13 02:31:12;;;;;;;;;34.00;25.67;;;;;-143.90;100.00;77149.13;4801001;29;102246;-71
2024/01/13 02:33:39;;;;;;;;;32.00;27.67;;;;;-143.90;100.00;77145.00;4809785;29;103393;-71
2024/01/13 02:36:06;;;;;;;;;37.33;30.67;;;;;-143.90;100.00;77153.28;4797306;29;103507;-72
2024/01/13 02:38:33;;;;;;;;;35.33;25.00;;;;;-143.90;100.00;77138.81;4810041;29;104019;-70
2024/01/13 02:41:06;;;;;;;;;43.00;31.67;;;;;-143.90;100.00;77153.28;4797623;29;102365;-71
2024/01/13 02:43:35;;;;;;;;;31.67;28.67;;;;;-143.90;100.00;77140.88;4806252;29;107687;-70
2024/01/13 02:46:03;;;;;;;;;38.00;28.00;;;;;-143.90;100.00;77134.66;4806503;29;102664;-71
2024/01/13 02:48:34;;;;;;;;;31.33;29.33;;;;;-143.90;100.00;77134.66;4806911;29;104307;-70
2024/01/13 02:51:09;;;;;;;;;32.00;28.00;;;;;-143.90;100.00;77132.59;4787865;29;102709;-71
2024/01/13 02:53:36;;;;;;;;;32.00;25.67;;;;;-143.90;100.00;77132.59;4807303;29;102348;-71
2024/01/13 02:56:03;;;;;;;;;30.00;25.33;;;;;-143.90;100.00;77124.31;4800132;29;104333;-71
2024/01/13 02:58:31;;;;;;;;;25.00;21.33;;;;;-143.90;100.00;77124.31;4805297;28;103973;-70
2024/01/13 03:01:10;;;;;;;;;29.67;24.33;;;;;-143.90;100.00;77120.19;4803023;29;103453;-70
2024/01/13 03:03:37;;;;;;;;;23.67;22.33;;;;;-143.90;100.00;77120.19;4811978;29;102730;-70
2024/01/13 03:06:05;;;;;;;;;26.00;20.00;;;;;-143.90;100.00;77120.19;4800036;29;103642;-70
2024/01/13 03:08:33;;;;;;;;;33.33;28.00;;;;;-143.90;100.00;77120.19;4812834;29;103945;-70
2024/01/13 03:11:11;;;;;;;;;35.33;25.00;;;;;-143.90;100.00;77107.78;4801834;29;102776;-70
2024/01/13 03:13:40;;;;;;;;;31.00;24.33;;;;;-143.90;100.00;77107.78;4806306;29;102790;-70
2024/01/13 03:16:07;;;;;;;;;16.00;13.67;;;;;-143.90;100.00;77107.78;4801050;29;102406;-71
2024/01/13 03:18:34;;;;;;;;;24.33;20.00;;;;;-143.90;100.00;77101.56;4807240;29;110569;-70
2024/01/13 03:21:11;;;;;;;;;24.00;19.67;;;;;-143.90;100.00;77091.22;4815252;28;102392;-71
2024/01/13 03:23:41;;;;;;;;;28.33;18.67;;;;;-143.90;100.00;77091.22;4803987;29;102269;-71
2024/01/13 03:26:08;;;;;;;;;22.33;20.00;;;;;-143.90;100.00;77091.22;4800540;29;102327;-70
2024/01/13 03:28:35;;;;;;;;;27.33;24.33;;;;;-143.90;100.00;77082.94;4809061;29;104205;-71
2024/01/13 03:31:08;;;;;;;;;23.00;20.00;;;;;-143.90;100.00;77072.59;4810366;29;102475;-71
2024/01/13 03:33:36;;;;;;;;;21.67;17.33;;;;;-143.90;100.00;77074.69;4809609;29;105097;-71
2024/01/13 03:36:03;;;;;;;;;20.00;18.33;;;;;-143.90;100.00;77070.53;4800485;28;102410;-70
2024/01/13 03:38:30;;;;;;;;;32.33;23.00;;;;;-143.90;100.00;77066.41;4806003;29;104040;-70
2024/01/13 03:41:08;;;;;;;;;26.00;22.00;;;;;-143.90;100.00;77062.25;4805499;29;102723;-71
2024/01/13 03:43:35;;;;;;;;;24.00;20.33;;;;;-143.90;100.00;77054.00;4804007;29;103801;-71
2024/01/13 03:46:03;;;;;;;;;17.00;17.00;;;;;-143.90;100.00;77051.94;4802115;29;104104;-72
2024/01/13 03:48:29;;;;;;;;;27.33;24.33;;;;;-143.90;100.00;77058.13;4808030;29;105231;-72
2024/01/13 03:50:56;;;;;;;;;24.00;22.33;;;;;-143.90;100.00;77041.59;4807394;29;104606;-70
2024/01/13 03:53:23;;;;;;;;;22.00;20.00;;;;;-143.90;100.00;77041.59;4810393;29;102329;-71
2024/01/13 03:55:50;;;;;;;;;18.33;16.00;;;;;-143.90;100.00;77033.31;4809131;29;104318;-71
2024/01/13 03:58:16;;;;;;;;;25.67;19.67;;;;;-143.90;100.00;77033.31;4791180;29;104134;-70
2024/01/13 04:00:43;;;;;;;;;20.33;19.33;;;;;-143.90;100.00;77029.19;4807085;29;102720;-71
2024/01/13 04:03:10;;;;;;;;;18.33;14.00;;;;;-143.90;100.00;77018.84;4807220;29;102396;-72
2024/01/13 04:05:37;;;;;;;;;22.67;16.00;;;;;-143.90;100.00;77010.56;4812214;29;102437;-71
2024/01/13 04:08:04;;;;;;;;;33.33;17.33;;;;;-143.90;100.00;77012.63;4792225;29;103981;-71
2024/01/13 04:10:30;;;;;;;;;22.00;17.00;;;;;-143.90;100.00;77004.34;4805034;29;102419;-71
2024/01/13 04:12:57;;;;;;;;;22.33;18.00;;;;;-143.90;100.00;77000.22;4804988;29;102165;-71
2024/01/13 04:15:24;;;;;;;;;26.00;23.00;;;;;-143.90;100.00;77010.56;4807567;29;102280;-71
2024/01/13 04:17:50;;;;;;;;;32.67;23.67;;;;;-143.90;100.00;77008.50;4805683;29;104006;-71
2024/01/13 04:20:17;;;;;;;;;30.33;20.00;;;;;-143.90;100.00;76996.09;4798221;29;102450;-71
2024/01/13 04:22:44;;;;;;;;;20.00;19.67;;;;;-143.90;100.00;76996.09;4801835;29;102250;-71
2024/01/13 04:25:11;;;;;;;;;30.67;26.00;;;;;-143.90;100.00;76991.94;4801548;29;102001;-72
2024/01/13 04:27:38;;;;;;;;;22.33;17.00;;;;;-143.90;100.00;76981.59;4800602;29;104062;-73
2024/01/13 04:30:05;;;;;;;;;30.33;23.33;;;;;-143.90;100.00;76981.59;4773832;29;102828;-72
2024/01/13 04:32:32;;;;;;;;;23.33;22.67;;;;;-143.90;100.00;76977.47;4806713;29;103949;-72
2024/01/13 04:34:59;;;;;;;;;24.33;22.67;;;;;-143.90;100.00;76981.59;4805854;29;102455;-72
2024/01/13 04:37:25;;;;;;;;;23.67;21.33;;;;;-143.90;100.00;76981.59;4806801;29;104484;-73
2024/01/13 04:39:52;;;;;;;;;17.67;16.33;;;;;-143.90;100.00;76971.25;4793704;29;102434;-72
2024/01/13 04:42:19;;;;;;;;;23.67;19.33;;;;;-143.90;100.00;76967.13;4790152;29;102111;-72
2024/01/13 04:44:45;;;;;;;;;19.00;16.00;;;;;-143.90;100.00;76956.78;4810750;29;102821;-72
2024/01/13 04:47:12;;;;;;;;;23.00;19.33;;;;;-143.90;100.00;76946.44;4813029;29;103935;-72
2024/01/13 04:49:39;;;;;;;;;23.67;16.67;;;;;-143.90;100.00;76944.38;4808575;29;102381;-72
2024/01/13 04:52:05;;;;;;;;;20.00;16.33;;;;;-143.90;100.00;76929.91;4784763;29;105125;-73
2024/01/13 04:54:32;;;;;;;;;22.00;19.33;;;;;-143.90;100.00;76929.91;4811612;29;102322;-72
2024/01/13 04:57:00;;;;;;;;;19.67;14.67;;;;;-143.90;100.00;76927.81;4809216;29;104133;-73
2024/01/13 04:59:27;;;;;;;;;24.00;16.67;;;;;-143.90;100.00;76923.69;4806124;29;102090;-73
2024/01/13 05:01:54;;;;;;;;;23.00;16.67;;;;;-143.90;100.00;76921.63;4807880;29;102257;-73
2024/01/13 05:04:20;;;;;;;;;28.33;18.67;;;;;-143.90;100.00;76917.47;4803171;29;106084;-74
2024/01/13 05:06:47;;;;;;;;;17.67;15.00;;;;;-143.90;100.00;76917.47;4808748;29;103989;-73
2024/01/13 05:09:14;;;;;;;;;22.00;20.00;;;;;-143.90;100.00;76917.47;4813922;29;102463;-72
2024/01/13 05:11:41;;;;;;;;;26.33;18.00;;;;;-143.90;100.00;76915.41;4806444;29;102234;-73
2024/01/13 05:14:08;;;;;;;;;16.00;15.00;;;;;-143.90;100.00;76921.63;4804654;28;102503;-73
2024/01/13 05:16:34;;;;;;;;;23.33;19.67;;;;;-143.90;100.00;76905.06;4810253;29;103643;-73
2024/01/13 05:19:02;;;;;;;;;17.00;13.33;;;;;-143.90;100.00;76905.06;4812168;29;102430;-73
2024/01/13 05:21:29;;;;;;;;;22.33;17.33;;;;;-143.90;100.00;76900.94;4810274;29;103041;-73
2024/01/13 05:23:56;;;;;;;;;21.33;16.33;;;;;-143.90;100.00;76909.22;4804272;29;102484;-72
2024/01/13 05:26:23;;;;;;;;;22.00;17.67;;;;;-143.90;100.00;76905.06;4803570;29;104271;-73
2024/01/13 05:28:49;;;;;;;;;18.00;16.33;;;;;-143.90;100.00;76905.06;4807874;29;102358;-72
2024/01/13 05:31:16;;;;;;;;;21.00;17.00;;;;;-143.90;100.00;76903.00;4808664;29;104852;-72
2024/01/13 05:33:43;;;;;;;;;23.33;18.33;;;;;-143.90;100.00;76909.22;4808329;29;102389;-72
2024/01/13 05:36:10;;;;;;;;;23.33;18.33;;;;;-143.90;100.00;76913.34;4794092;29;104186;-73
2024/01/13 05:38:37;;;;;;;;;28.00;24.00;;;;;-143.90;100.00;76927.81;4789964;29;102914;-74
2024/01/13 05:41:04;;;;;;;;;26.67;24.67;;;;;-143.90;100.00;76921.63;4801815;29;102290;-73
2024/01/13 05:43:30;;;;;;;;;26.00;22.00;;;;;-143.90;100.00;76925.75;4815230;29;102427;-73
2024/01/13 05:45:57;;;;;;;;;30.33;24.00;;;;;-143.90;100.00;76925.75;4806470;29;104173;-73
2024/01/13 05:48:24;;;;;;;;;25.00;23.00;;;;;-143.90;100.00;76942.31;4806663;29;102304;-72
2024/01/13 05:50:51;;;;;;;;;26.00;20.00;;;;;-143.90;100.00;76931.97;4809199;29;102528;-73
2024/01/13 05:53:17;;;;;;;;;20.33;16.33;;;;;-143.90;100.00;76929.91;4819336;29;102579;-73
2024/01/13 05:55:44;;;;;;;;;21.33;17.33;;;;;-143.90;100.00;76923.69;4810909;29;104082;-73
2024/01/13 05:58:10;;;;;;;;;26.33;20.00;;;;;-143.90;100.00;76921.63;4802341;29;108295;-73
2024/01/13 06:00:37;;;;;;;;;24.33;20.33;;;;;-143.90;100.00;76917.47;4805370;29;102727;-73
2024/01/13 06:03:04;;;;;;;;;21.67;17.67;;;;;-143.90;100.00;76925.75;4811760;29;102574;-73
2024/01/13 06:05:31;;;;;;;;;24.67;21.00;;;;;-143.90;100.00;76921.63;4796039;29;104285;-72
2024/01/13 06:07:58;;;;;;;;;28.33;20.33;;;;;-143.90;100.00;76919.56;4798552;29;102808;-72
2024/01/13 06:10:28;;;;;;;;;26.00;23.67;;;;;-143.90;100.00;76917.47;4808047;29;101907;-73
2024/01/13 06:12:56;;;;;;;;;37.00;23.33;;;;;-143.90;100.00;76911.28;4809184;29;102479;-72
2024/01/13 06:15:23;;;;;;;;;32.00;27.67;;;;;-143.90;100.00;76917.47;4804658;29;104407;-73
2024/01/13 06:17:53;;;;;;;;;34.00;26.67;;;;;-143.90;100.00;76911.28;4810846;29;102701;-73
2024/01/13 06:20:19;;;;;;;;;18.67;18.67;;;;;-143.90;100.00;76898.88;4776254;29;102713;-72
2024/01/13 06:22:46;;;;;;;;;34.00;24.67;;;;;-143.90;100.00;76900.94;4810958;29;101996;-73
2024/01/13 06:25:13;;;;;;;;;30.00;24.00;;;;;-143.90;100.00;76892.66;4807488;29;104139;-73
2024/01/13 06:27:39;;;;;;;;;27.00;23.33;;;;;-143.90;100.00;76886.47;4808463;28;102412;-73
2024/01/13 06:30:08;;;;;;;;;29.00;19.00;;;;;-143.90;100.00;76869.91;4794260;29;102294;-73
2024/01/13 06:32:35;;;;;;;;;20.67;17.00;;;;;-143.90;100.00;76861.63;4810982;29;102873;-73
2024/01/13 06:35:02;;;;;;;;;25.33;21.00;;;;;-143.90;100.00;76861.63;4809928;29;104299;-73
2024/01/13 06:37:29;;;;;;;;;33.00;29.67;;;;;-143.90;100.00;76871.97;4808217;29;102400;-73
2024/01/13 06:39:56;;;;;;;;;38.00;24.00;;;;;-143.90;100.00;76863.72;4807914;29;104706;-73
2024/01/13 06:42:23;;;;;;;;;29.00;23.33;;;;;-143.90;100.00;76863.72;4804275;29;102575;-71
2024/01/13 06:44:49;;;;;;;;;24.00;20.67;;;;;-143.90;100.00;76861.63;4805659;29;103983;-73
2024/01/13 06:47:16;;;;;;;;;28.00;24.67;;;;;-143.90;100.00;76863.72;4814659;29;102334;-73
2024/01/13 06:49:42;;;;;;;;;28.67;21.67;;;;;-143.90;100.00;76874.06;4808621;29;102318;-73
2024/01/13 06:52:12;;;;;;;;;31.00;22.33;;;;;-143.90;100.00;76863.72;4800316;29;102165;-73
2024/01/13 06:54:38;;;;;;;;;18.33;15.67;;;;;-143.90;100.00;76865.78;4811997;29;108906;-73
2024/01/13 06:57:05;;;;;;;;;23.67;17.67;;;;;-143.90;100.00;76867.84;4810874;29;102558;-72
2024/01/13 06:59:33;;;;;;;;;19.33;14.00;;;;;-143.90;100.00;76849.22;4808314;29;103016;-73
2024/01/13 07:01:59;;;;;;;;;27.33;15.00;;;;;-143.90;100.00;76851.31;4798051;29;104255;-73
2024/01/13 07:04:28;;;;;;;;;23.33;19.67;;;;;-143.90;100.00;76849.22;4807366;29;104730;-72
2024/01/13 07:06:55;;;;;;;;;24.00;20.00;;;;;-143.90;100.00;76859.56;4809821;29;102671;-73
2024/01/13 07:09:22;;;;;;;;;33.33;23.00;;;;;-143.90;100.00;76853.38;4802494;29;102724;-72
2024/01/13 07:11:52;;;;;;;;;22.33;20.00;;;;;-143.90;100.00;76855.44;4800709;29;103878;-72
2024/01/13 07:14:19;;;;;;;;;26.33;20.33;;;;;-143.90;100.00;76855.44;4778197;29;104018;-73
2024/01/13 07:16:45;;;;;;;;;26.67;22.33;;;;;-143.90;100.00;76855.44;4766711;29;102717;-73
2024/01/13 07:19:12;;;;;;;;;28.67;23.33;;;;;-143.90;100.00;76863.72;4798377;29;102720;-72
2024/01/13 07:21:38;;;;;;;;;24.33;20.67;;;;;-143.90;100.00;76853.38;4810793;29;102371;-73
2024/01/13 07:24:11;;;;;;;;;35.00;25.67;;;;;-143.90;100.00;76867.84;4798250;29;108787;-71
2024/01/13 07:26:39;;;;;;;;;61.00;42.33;;;;;-143.90;100.00;76871.97;4799637;29;103011;-70
2024/01/13 07:29:08;;;;;;;;;60.33;46.00;;;;;-143.90;100.00;76871.97;4801443;29;102218;-74
2024/01/13 07:31:35;;;;;;;;;42.00;33.00;;;;;-143.90;100.00;76869.91;4819445;29;102367;-75
2024/01/13 07:34:02;;;;;;;;;36.00;26.33;;;;;-143.90;100.00;76871.97;4803718;29;104727;-76
2024/01/13 07:36:28;;;;;;;;;38.00;32.00;;;;;-143.90;100.00;76863.72;4823922;29;102257;-76
2024/01/13 07:38:55;;;;;;;;;43.33;34.33;;;;;-143.90;100.00;76861.63;4836938;28;104483;-77
2024/01/13 07:41:22;;;;;;;;;37.00;30.67;;;;;-143.90;100.00;76863.72;4841172;28;102624;-76
2024/01/13 07:43:49;;;;;;;;;47.33;36.67;;;;;-143.90;100.00;76859.56;4837890;28;103192;-75
2024/01/13 07:46:15;;;;;;;;;47.00;35.00;;;;;-143.90;100.00;76867.84;4823759;28;102404;-75
2024/01/13 07:48:42;;;;;;;;;40.67;33.33;;;;;-143.90;100.00;76857.50;4832296;28;102219;-75
2024/01/13 07:51:09;;;;;;;;;42.00;34.67;;;;;-143.90;100.00;76857.50;4823657;28;102271;-76
2024/01/13 07:53:50;;;;;;;;;44.67;33.00;;;;;-143.90;100.00;76851.31;4830625;28;108743;-76
2024/01/13 07:56:17;;;;;;;;;43.33;34.00;;;;;-143.90;100.00;76849.22;4827238;28;102683;-74
2024/01/13 07:58:46;;;;;;;;;43.00;32.33;;;;;-143.90;100.00;76845.09;4838228;28;101880;-74
2024/01/13 08:01:13;;;;;;;;;39.00;31.33;;;;;-143.90;100.00;76849.22;4816681;28;102059;-75
2024/01/13 08:03:53;;;;;;;;;31.33;25.00;;;;;-143.90;100.00;76838.88;4832178;28;104272;-76
2024/01/13 08:06:22;;;;;;;;;31.67;27.67;;;;;-143.90;100.00;76826.47;4824518;28;102420;-77
2024/01/13 08:08:50;;;;;;;;;8.00;2.00;;;;;-143.90;100.00;76830.63;4834997;28;102422;-75
2024/01/13 08:11:17;;;;;;;;;38.00;30.00;;;;;-143.90;100.00;76834.75;4837785;28;102418;-75
2024/01/13 08:14:02;;;;;;;;;35.67;24.00;;;;;-143.90;100.00;76832.69;4821561;28;104084;-76
2024/01/13 08:16:29;;;;;;;;;30.67;27.67;;;;;-143.90;100.00;76820.28;4836671;28;102523;-75
2024/01/13 08:18:57;;;;;;;;;33.33;29.00;;;;;-143.90;100.00;76820.28;4831341;28;105115;-75
2024/01/13 08:21:24;;;;;;;;;41.33;31.33;;;;;-143.90;100.00;76830.63;4829343;28;102380;-75
2024/01/13 08:24:04;;;;;;;;;37.67;32.00;;;;;-143.90;100.00;76832.69;4821364;28;104122;-74
2024/01/13 08:26:32;;;;;;;;;39.00;30.00;;;;;-143.90;100.00;76818.22;4821681;28;103441;-76
2024/01/13 08:29:00;;;;;;;;;42.33;37.00;;;;;-143.90;100.00;76820.28;4812959;28;102513;-75
2024/01/13 08:31:30;;;;;;;;;33.00;28.67;;;;;-143.90;100.00;76816.13;4825666;28;102472;-76
2024/01/13 08:34:07;;;;;;;;;46.33;34.67;;;;;-143.90;100.00;76801.66;4815369;28;104985;-75
2024/01/13 08:36:34;;;;;;;;;42.33;33.33;;;;;-143.90;100.00;76812.00;4836686;28;102606;-76
2024/01/13 08:39:00;;;;;;;;;40.33;31.67;;;;;-143.90;100.00;76814.06;4832405;28;102625;-75
2024/01/13 08:41:27;;;;;;;;;36.33;28.33;;;;;-143.90;100.00;76809.94;4821459;28;102513;-76
2024/01/13 08:44:01;;;;;;;;;32.00;27.33;;;;;-143.90;100.00;76793.38;4812894;28;104489;-76
2024/01/13 08:46:28;;;;;;;;;31.67;24.33;;;;;-143.90;100.00;76793.38;4825159;28;102356;-76
2024/01/13 08:48:55;;;;;;;;;39.33;34.33;;;;;-143.90;100.00;76803.72;4828568;28;102380;-76
2024/01/13 08:51:23;;;;;;;;;19.67;19.00;;;;;-143.90;100.00;76791.31;4838468;28;102120;-76
2024/01/13 08:54:03;;;;;;;;;39.67;31.33;;;;;-143.90;100.00;76774.78;4826011;28;103288;-76
2024/01/13 08:56:34;;;;;;;;;39.00;29.00;;;;;-143.90;100.00;76760.28;4830509;28;108196;-77
2024/01/13 08:59:02;;;;;;;;;42.67;37.00;;;;;-143.90;100.00;76768.56;4830526;28;102594;-76
2024/01/13 09:01:28;;;;;;;;;32.33;27.00;;;;;-143.90;100.00;76776.84;4835363;28;102904;-75
2024/01/13 09:04:04;;;;;;;;;28.33;25.00;;;;;-143.90;100.00;76780.97;4821331;28;104418;-77
2024/01/13 09:06:32;;;;;;;;;33.33;25.33;;;;;-143.90;100.00;76766.50;4831028;28;102603;-76
2024/01/13 09:08:59;;;;;;;;;31.00;26.33;;;;;-143.90;100.00;76762.38;4832167;28;102791;-77
2024/01/13 09:11:25;;;;;;;;;34.67;27.33;;;;;-143.90;100.00;76766.50;4837724;28;102053;-76
2024/01/13 09:14:07;;;;;;;;;29.33;25.33;;;;;-143.90;100.00;76749.97;4821151;28;104839;-77
2024/01/13 09:16:33;;;;;;;;;36.67;29.33;;;;;-143.90;100.00;76752.03;4837848;28;102194;-77
2024/01/13 09:19:00;;;;;;;;;35.67;30.00;;;;;-143.90;100.00;76752.03;4838007;28;102171;-75
2024/01/13 09:21:27;;;;;;;;;43.00;31.33;;;;;-143.90;100.00;76758.22;4835556;28;102372;-75
2024/01/13 09:24:06;;;;;;;;;32.33;26.00;;;;;-143.90;100.00;76756.16;4817091;28;104985;-75
2024/01/13 09:26:42;;;;;;;;;34.00;31.33;;;;;-143.90;100.00;76747.88;4830201;28;102199;-76
2024/01/13 09:29:13;;;;;;;;;37.00;30.33;;;;;-143.90;100.00;76747.88;4825477;28;102754;-76
2024/01/13 09:31:40;;;;;;;;;38.00;31.00;;;;;-143.90;100.00;76716.88;4835763;28;102636;-76
2024/01/13 09:34:08;;;;;;;;;51.00;37.67;;;;;-143.90;100.00;76710.66;4818268;28;109037;-76
2024/01/13 09:36:38;;;;;;;;;40.67;27.33;;;;;-143.90;100.00;76712.72;4827966;28;102175;-77
2024/01/13 09:39:05;;;;;;;;;28.33;25.33;;;;;-143.90;100.00;76706.53;4835684;28;102182;-76
2024/01/13 09:41:33;;;;;;;;;39.67;29.33;;;;;-143.90;100.00;76704.47;4833708;28;102347;-77
2024/01/13 09:44:25;;;;;;;;;39.00;32.00;;;;;-143.90;100.00;76696.19;4826277;28;104203;-77
2024/01/13 09:46:55;;;;;;;;;37.67;25.33;;;;;-143.90;100.00;76706.53;4834057;28;102498;-76
2024/01/13 09:49:27;;;;;;;;;40.33;29.00;;;;;-143.90;100.00;76704.47;4833052;28;102166;-76
2024/01/13 09:51:56;;;;;;;;;38.00;29.67;;;;;-143.90;100.00;76689.97;4840177;28;102721;-76
2024/01/13 09:54:24;;;;;;;;;30.00;28.67;;;;;-143.90;100.00;76685.84;4827235;28;103909;-77
2024/01/13 09:56:53;;;;;;;;;37.00;30.33;;;;;-143.90;100.00;76681.72;4831534;28;105027;-75
2024/01/13 09:59:22;;;;;;;;;31.33;27.33;;;;;-143.90;100.00;76696.19;4833754;28;102371;-76
2024/01/13 10:01:49;;;;;;;;;43.33;33.33;;;;;-143.90;100.00;76685.84;4834907;28;101922;-75
2024/01/13 10:04:16;;;;;;;;;43.00;32.33;;;;;-143.90;100.00;76689.97;4823547;28;103990;-75
2024/01/13 10:06:44;;;;;;;;;48.67;29.00;;;;;-143.90;100.00;76669.28;4831766;28;102496;-77
2024/01/13 10:09:11;;;;;;;;;27.00;21.33;;;;;-143.90;100.00;76665.16;4837040;28;102454;-75
2024/01/13 10:11:59;;;;;;;;;33.00;30.67;;;;;-143.90;100.00;76656.88;4825527;28;102522;-76
2024/01/13 10:14:26;;;;;;;;;41.33;33.33;;;;;-143.90;100.00;76665.16;4825297;28;106295;-76
2024/01/13 10:16:52;;;;;;;;;35.67;28.00;;;;;-143.90;100.00;76661.03;4831064;28;102341;-76
2024/01/13 10:19:23;;;;;;;;;36.00;27.33;;;;;-143.90;100.00;76667.22;4826342;28;102784;-75
2024/01/13 10:21:56;;;;;;;;;29.00;25.00;;;;;-143.90;100.00;76652.75;4833528;28;103140;-75
2024/01/13 10:24:23;;;;;;;;;29.67;28.00;;;;;-143.90;100.00;76646.53;4820730;28;105056;-74
2024/01/13 10:26:50;;;;;;;;;33.00;25.67;;;;;-143.90;100.00;76642.41;4834621;28;102645;-75
2024/01/13 10:29:19;;;;;;;;;39.00;31.67;;;;;-143.90;100.00;76623.78;4805148;28;102449;-74
2024/01/13 10:31:50;;;;;;;;;32.00;28.33;;;;;-143.90;100.00;76627.94;4831714;28;102473;-75
2024/01/13 10:34:21;;;;;;;;;28.00;25.00;;;;;-143.90;100.00;76623.78;4813796;28;104579;-74
2024/01/13 10:36:48;;;;;;;;;36.00;31.67;;;;;-143.90;100.00;76648.63;4829360;28;102488;-75
2024/01/13 10:39:17;;;;;;;;;27.00;22.33;;;;;-143.90;100.00;76646.53;4813187;28;102639;-75
2024/01/13 10:41:50;;;;;;;;;36.33;30.00;;;;;-143.90;100.00;76640.34;4829544;28;102281;-76
2024/01/13 10:44:21;;;;;;;;;41.67;31.33;;;;;-143.90;100.00;76632.06;4815712;28;104334;-76
2024/01/13 10:46:51;;;;;;;;;32.00;29.33;;;;;-143.90;100.00;76632.06;4836520;28;102275;-75
2024/01/13 10:49:31;;;;;;;;;36.33;26.67;;;;;-143.90;100.00;76627.94;4818764;28;104129;-74
2024/01/13 10:51:58;;;;;;;;;34.00;22.67;;;;;-143.90;100.00;76638.28;4822356;28;102472;-75
2024/01/13 10:54:28;;;;;;;;;28.00;19.67;;;;;-143.90;100.00;76634.13;4822537;28;104347;-75